This is the latest recevied weather packets stored in our database for station/object LU8FJH-13. If no packets are shown the sender has not sent any weather packets the latest 10 day(s).
| Time | Temp. | Humidity | Pressure | Rain* | Wind** | Luminosity | Snow |
|---|---|---|---|---|---|---|---|
| 1777724695 | 15.56° C | 54% | 1025.8 hPa | 0 mm | - | - | - |
| 1777724155 | 14.44° C | 57% | 1025.7 hPa | 0 mm | - | - | - |
| 1777723615 | 13.33° C | 57% | 1025.5 hPa | 0 mm | - | - | - |
| 1777723075 | 13.89° C | 54% | 1025.6 hPa | 0 mm | - | - | - |
| 1777722535 | 14.44° C | 54% | 1025.4 hPa | 0 mm | - | - | - |
| 1777721995 | 13.33° C | 57% | 1025.2 hPa | 0 mm | - | - | - |
| 1777721455 | 12.22° C | 59% | 1025.1 hPa | 0 mm | - | - | - |
| 1777720915 | 11.11° C | 62% | 1024.9 hPa | 0 mm | - | - | - |
| 1777720375 | 11.11° C | 61% | 1024.8 hPa | 0 mm | - | - | - |
| 1777719835 | 11.11° C | 61% | 1024.9 hPa | 0 mm | - | - | - |
| 1777719295 | 11.11° C | 60% | 1024.9 hPa | 0 mm | - | - | - |
| 1777718755 | 11.11° C | 60% | 1024.7 hPa | 0 mm | - | - | - |
| 1777718215 | 11.11° C | 60% | 1024.2 hPa | 0 mm | - | - | - |
| 1777717675 | 11.67° C | 60% | 1023.8 hPa | 0 mm | - | - | - |
| 1777717135 | 11.67° C | 60% | 1024 hPa | 0 mm | - | - | - |
| 1777716595 | 11.67° C | 61% | 1023.9 hPa | 0 mm | - | - | - |
| 1777716055 | 11.67° C | 60% | 1023.6 hPa | 0 mm | - | - | - |
| 1777715515 | 11.67° C | 60% | 1023.3 hPa | 0 mm | - | - | - |
| 1777714975 | 12.22° C | 59% | 1023.2 hPa | 0 mm | - | - | - |
| 1777714435 | 12.22° C | 59% | 1023 hPa | 0 mm | - | - | - |
| 1777713895 | 12.22° C | 59% | 1022.8 hPa | 0 mm | - | - | - |
| 1777713355 | 12.22° C | 59% | 1022.6 hPa | 0 mm | - | - | - |
| 1777712814 | 12.22° C | 59% | 1022.7 hPa | 0 mm | - | - | - |
| 1777712275 | 12.78° C | 58% | 1022.5 hPa | 0 mm | - | - | - |
| 1777711734 | 12.78° C | 58% | 1022.3 hPa | 0 mm | - | - | - |
* Rain latest hour (hover to see other rain measurements)
** Current wind speed in m/s (hover to see current wind gust speed)